Time;durP1;ratioP1;P1;durP2;ratioP2;P2;SDS_P1;SDS_P2;PMS_P1;PMS_P2;Temp;Humidity;BMP_temperature;BMP_pressure;BME280_temperature;BME280_humidity;BME280_pressure;Samples;Min_cycle;Max_cycle;Signal;HPM_P1;HPM_P2
2024/01/18 00:01:08;;;;;;;8.82;6.78;;;;;;;;;;10487232;28;20044;-77
2024/01/18 00:06:12;;;;;;;8.00;5.60;;;;;;;;;;10472816;28;20048;-77
2024/01/18 00:11:17;;;;;;;5.80;4.18;;;;;;;;;;10484157;28;20286;-77
2024/01/18 00:16:20;;;;;;;5.57;4.70;;;;;;;;;;10481181;28;20057;-77
2024/01/18 00:21:24;;;;;;;7.53;5.22;;;;;;;;;;10483808;28;20054;-77
2024/01/18 00:26:29;;;;;;;6.13;4.43;;;;;;;;;;10491334;28;20122;-77
2024/01/18 00:31:32;;;;;;;5.47;4.40;;;;;;;;;;10487881;28;20135;-77
2024/01/18 00:36:36;;;;;;;8.43;6.43;;;;;;;;;;10488505;28;20045;-77
2024/01/18 00:41:40;;;;;;;6.85;5.70;;;;;;;;;;10491509;28;20048;-77
2024/01/18 00:46:44;;;;;;;6.13;4.80;;;;;;;;;;10486234;28;20274;-77
2024/01/18 00:51:47;;;;;;;5.82;4.28;;;;;;;;;;10486372;28;20048;-77
2024/01/18 00:56:52;;;;;;;7.13;5.72;;;;;;;;;;10489002;28;20052;-77
2024/01/18 01:01:55;;;;;;;7.20;5.53;;;;;;;;;;10490048;28;20119;-77
2024/01/18 01:06:59;;;;;;;8.68;6.40;;;;;;;;;;10492559;28;20136;-77
2024/01/18 01:12:04;;;;;;;7.90;5.90;;;;;;;;;;10496103;28;20052;-77
2024/01/18 01:17:08;;;;;;;9.80;7.43;;;;;;;;;;10489848;28;20056;-77
2024/01/18 01:22:11;;;;;;;9.15;5.78;;;;;;;;;;10493111;28;20136;-77
2024/01/18 01:27:16;;;;;;;5.20;4.60;;;;;;;;;;10489509;28;20045;-76
2024/01/18 01:32:19;;;;;;;9.73;7.60;;;;;;;;;;10489787;28;20415;-77
2024/01/18 01:37:23;;;;;;;7.78;5.85;;;;;;;;;;10492130;28;20055;-77
2024/01/18 01:42:27;;;;;;;7.00;5.70;;;;;;;;;;10490503;28;20068;-77
2024/01/18 01:47:31;;;;;;;8.38;5.82;;;;;;;;;;10487349;28;20052;-77
2024/01/18 01:52:35;;;;;;;9.43;6.45;;;;;;;;;;10489816;28;20071;-77
2024/01/18 01:57:41;;;;;;;6.78;4.93;;;;;;;;;;10486207;28;20090;-77
2024/01/18 02:02:45;;;;;;;11.50;8.30;;;;;;;;;;10499982;28;20110;-77
2024/01/18 02:07:49;;;;;;;8.10;6.32;;;;;;;;;;10494849;28;20658;-77
2024/01/18 02:12:54;;;;;;;8.25;6.25;;;;;;;;;;10471179;28;20102;-77
2024/01/18 02:17:58;;;;;;;12.90;9.15;;;;;;;;;;10482357;28;20090;-77
2024/01/18 02:23:03;;;;;;;10.55;8.25;;;;;;;;;;10489606;28;20064;-77
2024/01/18 02:28:08;;;;;;;9.43;6.80;;;;;;;;;;10487781;28;20048;-77
2024/01/18 02:33:11;;;;;;;8.90;6.72;;;;;;;;;;10490313;28;20754;-77
2024/01/18 02:38:14;;;;;;;9.02;6.75;;;;;;;;;;10496898;28;20048;-77
2024/01/18 02:43:19;;;;;;;4.95;4.45;;;;;;;;;;10484243;28;20099;-77
2024/01/18 02:48:23;;;;;;;5.20;4.13;;;;;;;;;;10482129;28;20076;-77
2024/01/18 02:53:26;;;;;;;9.25;7.05;;;;;;;;;;10488783;28;20085;-76
2024/01/18 02:58:31;;;;;;;8.10;6.63;;;;;;;;;;10484742;28;20040;-77
2024/01/18 03:03:36;;;;;;;8.35;6.40;;;;;;;;;;10474160;28;20371;-77
2024/01/18 03:08:39;;;;;;;9.13;7.00;;;;;;;;;;10483821;28;20512;-77
2024/01/18 03:13:44;;;;;;;9.27;6.70;;;;;;;;;;10486942;28;20044;-77
2024/01/18 03:18:48;;;;;;;7.30;5.53;;;;;;;;;;10483065;28;20052;-77
2024/01/18 03:23:52;;;;;;;8.05;6.53;;;;;;;;;;10497185;28;20589;-78
2024/01/18 03:28:57;;;;;;;6.13;4.55;;;;;;;;;;10479618;28;20147;-77
2024/01/18 03:34:00;;;;;;;5.00;3.72;;;;;;;;;;10476650;28;20048;-77
2024/01/18 03:39:06;;;;;;;4.88;3.78;;;;;;;;;;10483872;28;20410;-77
2024/01/18 03:44:10;;;;;;;5.00;4.30;;;;;;;;;;10483534;28;20127;-77
2024/01/18 03:49:14;;;;;;;4.78;3.72;;;;;;;;;;10480825;28;20048;-77
2024/01/18 03:54:17;;;;;;;3.80;3.00;;;;;;;;;;10485156;28;20468;-77
2024/01/18 03:59:23;;;;;;;5.40;4.10;;;;;;;;;;10482586;28;20040;-77
2024/01/18 04:04:27;;;;;;;;;;;;;;;;;;10480322;28;20056;-77
2024/01/18 04:09:30;;;;;;;7.15;4.97;;;;;;;;;;10483463;28;19921;-77
2024/01/18 04:14:35;;;;;;;4.80;3.75;;;;;;;;;;10485601;28;20049;-77
2024/01/18 04:19:39;;;;;;;4.32;3.35;;;;;;;;;;10485564;28;20044;-77
2024/01/18 04:24:42;;;;;;;6.22;4.55;;;;;;;;;;10484050;28;20702;-76
2024/01/18 04:29:47;;;;;;;4.70;3.53;;;;;;;;;;10483769;28;20048;-77
2024/01/18 04:34:51;;;;;;;3.78;3.13;;;;;;;;;;10477996;28;20526;-77
2024/01/18 04:39:54;;;;;;;5.63;4.03;;;;;;;;;;10479400;28;20402;-77
2024/01/18 04:44:59;;;;;;;4.75;3.60;;;;;;;;;;10471860;28;20449;-77
2024/01/18 04:50:03;;;;;;;4.63;3.65;;;;;;;;;;10481664;28;20044;-78
2024/01/18 04:55:09;;;;;;;6.43;4.65;;;;;;;;;;10482018;28;20048;-78
2024/01/18 05:00:15;;;;;;;6.32;4.85;;;;;;;;;;10473212;28;20083;-78
2024/01/18 05:05:19;;;;;;;5.88;4.63;;;;;;;;;;10479061;28;20063;-78
2024/01/18 05:10:23;;;;;;;6.93;5.15;;;;;;;;;;10481234;22;20036;-79
2024/01/18 05:15:28;;;;;;;5.18;4.00;;;;;;;;;;10445699;28;20368;-79
2024/01/18 05:20:32;;;;;;;3.63;2.90;;;;;;;;;;10437880;28;20075;-78
2024/01/18 05:25:35;;;;;;;3.55;2.90;;;;;;;;;;10443917;28;20060;-78
2024/01/18 05:30:40;;;;;;;5.28;4.05;;;;;;;;;;10453133;28;20199;-77
2024/01/18 05:35:43;;;;;;;4.97;3.97;;;;;;;;;;10444770;28;20080;-77
2024/01/18 05:40:47;;;;;;;5.25;3.70;;;;;;;;;;10437613;28;20045;-77
2024/01/18 05:45:52;;;;;;;4.78;4.00;;;;;;;;;;10458886;28;20056;-77
2024/01/18 05:50:55;;;;;;;3.92;3.38;;;;;;;;;;10455031;28;20102;-78
2024/01/18 05:55:59;;;;;;;6.38;4.80;;;;;;;;;;10457795;28;20056;-77
2024/01/18 06:01:04;;;;;;;5.97;3.83;;;;;;;;;;10454723;28;20052;-77
2024/01/18 06:06:07;;;;;;;4.15;3.22;;;;;;;;;;10453200;28;20068;-77
2024/01/18 06:11:11;;;;;;;2.85;2.42;;;;;;;;;;10445548;28;20061;-77
2024/01/18 06:16:16;;;;;;;2.00;1.58;;;;;;;;;;10450870;28;20041;-78
2024/01/18 06:21:22;;;;;;;1.90;1.50;;;;;;;;;;10435048;28;20059;-78
2024/01/18 06:26:26;;;;;;;1.70;1.35;;;;;;;;;;10447522;28;20045;-77
2024/01/18 06:31:31;;;;;;;1.65;1.23;;;;;;;;;;10442632;28;20056;-77
2024/01/18 06:36:34;;;;;;;2.67;1.55;;;;;;;;;;10450037;28;20048;-77
2024/01/18 06:41:37;;;;;;;1.95;1.70;;;;;;;;;;10435148;28;20098;-78
2024/01/18 06:46:42;;;;;;;3.00;2.28;;;;;;;;;;10461172;28;20549;-77
2024/01/18 06:51:45;;;;;;;2.53;2.20;;;;;;;;;;10450892;28;20433;-77
2024/01/18 06:56:49;;;;;;;3.50;2.30;;;;;;;;;;10461954;28;20652;-77
2024/01/18 07:01:54;;;;;;;5.43;3.78;;;;;;;;;;10454920;28;20045;-77
2024/01/18 07:06:57;;;;;;;6.93;4.70;;;;;;;;;;10450181;28;20052;-77
2024/01/18 07:12:00;;;;;;;8.73;5.65;;;;;;;;;;10449335;28;20533;-77
2024/01/18 07:17:05;;;;;;;10.60;6.45;;;;;;;;;;10450369;28;20049;-77
2024/01/18 07:22:10;;;;;;;9.80;6.20;;;;;;;;;;10451096;28;20402;-77
2024/01/18 07:27:13;;;;;;;12.48;7.68;;;;;;;;;;10450813;28;20644;-77
2024/01/18 07:32:18;;;;;;;8.70;5.70;;;;;;;;;;10443419;28;20398;-76
2024/01/18 07:37:21;;;;;;;7.32;5.20;;;;;;;;;;10457112;28;20536;-77
2024/01/18 07:42:24;;;;;;;8.43;5.63;;;;;;;;;;10452742;28;20302;-77
2024/01/18 07:47:29;;;;;;;7.50;5.32;;;;;;;;;;10468927;28;20341;-76
2024/01/18 07:52:32;;;;;;;6.70;4.65;;;;;;;;;;10441596;28;20060;-77
2024/01/18 07:57:36;;;;;;;7.43;4.95;;;;;;;;;;10448171;28;20051;-76
2024/01/18 08:02:41;;;;;;;12.55;6.45;;;;;;;;;;10446633;28;20136;-76
2024/01/18 08:07:44;;;;;;;9.70;5.40;;;;;;;;;;10451210;28;20562;-77
2024/01/18 08:12:49;;;;;;;9.73;6.13;;;;;;;;;;10431535;28;20045;-77
2024/01/18 08:17:53;;;;;;;13.60;8.35;;;;;;;;;;10427631;28;20448;-77
2024/01/18 08:22:56;;;;;;;10.27;5.75;;;;;;;;;;10449158;28;20048;-77
2024/01/18 08:28:00;;;;;;;9.50;5.10;;;;;;;;;;10448418;28;20059;-77
2024/01/18 08:33:05;;;;;;;7.57;5.18;;;;;;;;;;10453523;28;20045;-77
2024/01/18 08:38:08;;;;;;;9.13;6.13;;;;;;;;;;10438252;28;20049;-77
2024/01/18 08:43:11;;;;;;;12.40;6.55;;;;;;;;;;10437660;28;20052;-77
2024/01/18 08:48:16;;;;;;;7.88;4.93;;;;;;;;;;10452884;28;20405;-77
2024/01/18 08:53:19;;;;;;;10.25;6.28;;;;;;;;;;10448779;28;20037;-77
2024/01/18 08:58:22;;;;;;;7.90;5.03;;;;;;;;;;10451528;28;20053;-77
2024/01/18 09:03:28;;;;;;;8.43;6.25;;;;;;;;;;10431782;28;20041;-77
2024/01/18 09:08:34;;;;;;;6.47;4.65;;;;;;;;;;10438903;28;20103;-78
2024/01/18 09:13:37;;;;;;;10.02;5.30;;;;;;;;;;10448482;28;20120;-77
2024/01/18 09:18:42;;;;;;;12.75;7.90;;;;;;;;;;10454924;28;20128;-77
2024/01/18 09:23:52;;;;;;;17.27;9.30;;;;;;;;;;10452287;28;20068;-77
2024/01/18 09:28:55;;;;;;;16.42;8.77;;;;;;;;;;10450310;28;20056;-78
2024/01/18 09:34:00;;;;;;;13.82;7.85;;;;;;;;;;10460597;28;20075;-78
2024/01/18 09:39:07;;;;;;;12.82;6.72;;;;;;;;;;10454772;28;20144;-78
2024/01/18 09:44:14;;;;;;;13.65;8.68;;;;;;;;;;10440529;28;20513;-78
2024/01/18 09:49:22;;;;;;;12.70;6.90;;;;;;;;;;10469616;28;20056;-79
2024/01/18 09:54:26;;;;;;;15.38;9.50;;;;;;;;;;10437447;28;20041;-79
2024/01/18 09:59:30;;;;;;;14.25;8.18;;;;;;;;;;10449140;28;20133;-78
2024/01/18 10:04:36;;;;;;;14.52;9.35;;;;;;;;;;10450210;28;20540;-78
2024/01/18 10:09:40;;;;;;;10.75;6.45;;;;;;;;;;10422795;28;20047;-78
2024/01/18 10:14:45;;;;;;;13.05;8.43;;;;;;;;;;10449918;28;20123;-78
2024/01/18 10:19:51;;;;;;;10.70;6.80;;;;;;;;;;10456994;28;20119;-78
2024/01/18 10:24:55;;;;;;;14.60;8.48;;;;;;;;;;10451052;28;20049;-78
2024/01/18 10:29:58;;;;;;;15.15;9.45;;;;;;;;;;10447188;28;20052;-78
2024/01/18 10:35:03;;;;;;;10.88;6.60;;;;;;;;;;10445229;28;20437;-78
2024/01/18 10:40:10;;;;;;;10.57;6.18;;;;;;;;;;10461992;28;20061;-79
2024/01/18 10:45:13;;;;;;;10.40;6.72;;;;;;;;;;10449513;28;20313;-79
2024/01/18 10:50:18;;;;;;;17.40;10.32;;;;;;;;;;10460787;28;20461;-78
2024/01/18 10:55:21;;;;;;;20.35;13.48;;;;;;;;;;10451906;28;20418;-78
2024/01/18 11:00:25;;;;;;;14.85;10.20;;;;;;;;;;10454685;28;20049;-79
2024/01/18 11:05:30;;;;;;;15.13;9.52;;;;;;;;;;10444885;28;20053;-79
2024/01/18 11:53:14;;;;;;;16.05;10.05;;;;;;;;;;10435076;28;20278;-92
2024/01/18 11:58:48;;;;;;;16.23;11.00;;;;;;;;;;10415621;28;20259;-90
2024/01/18 12:04:09;;;;;;;15.85;9.43;;;;;;;;;;10401715;28;22198;-91
2024/01/18 12:09:44;;;;;;;21.10;12.15;;;;;;;;;;10382303;28;20065;-91
2024/01/18 12:15:45;;;;;;;;;;;;;;;;;;;;;
2024/01/18 12:21:16;;;;;;;24.83;14.93;;;;;;;;;;10398607;28;20052;-91
2024/01/18 12:26:53;;;;;;;23.90;14.43;;;;;;;;;;10419930;28;20218;-91
2024/01/18 12:32:11;;;;;;;22.98;14.25;;;;;;;;;;10418304;28;20073;-92
2024/01/18 12:37:32;;;;;;;22.45;12.15;;;;;;;;;;10428962;28;20138;-93
2024/01/18 12:42:38;;;;;;;18.17;10.95;;;;;;;;;;10809883;22;20036;-91
2024/01/18 12:47:41;;;;;;;21.17;13.50;;;;;;;;;;10468646;28;20053;-91
2024/01/18 12:52:45;;;;;;;23.20;13.73;;;;;;;;;;10473981;28;20048;-91
2024/01/18 12:57:52;;;;;;;24.45;14.70;;;;;;;;;;10475308;28;20044;-91
2024/01/18 13:02:56;;;;;;;25.88;16.20;;;;;;;;;;10478699;28;20064;-91
2024/01/18 13:08:00;;;;;;;24.23;14.48;;;;;;;;;;10470327;28;20052;-91
2024/01/18 13:13:06;;;;;;;21.85;13.68;;;;;;;;;;10494138;28;20127;-92
2024/01/18 13:18:10;;;;;;;27.40;17.10;;;;;;;;;;10497419;28;20044;-91
2024/01/18 13:23:13;;;;;;;28.08;16.70;;;;;;;;;;10493191;28;20044;-91
2024/01/18 13:28:18;;;;;;;23.88;12.75;;;;;;;;;;10494039;28;20041;-91
2024/01/18 13:33:21;;;;;;;30.00;17.60;;;;;;;;;;10493063;28;20048;-92
2024/01/18 13:38:28;;;;;;;31.13;17.15;;;;;;;;;;10476019;28;20044;-92
2024/01/18 13:43:33;;;;;;;25.88;14.52;;;;;;;;;;10484632;28;20057;-91
2024/01/18 13:48:37;;;;;;;26.48;15.60;;;;;;;;;;10491144;28;20040;-91
2024/01/18 13:53:40;;;;;;;24.42;14.18;;;;;;;;;;10473635;28;20059;-91
2024/01/18 13:58:45;;;;;;;20.10;11.35;;;;;;;;;;10485239;28;20047;-91
2024/01/18 14:03:49;;;;;;;22.70;12.18;;;;;;;;;;10477905;28;20045;-90
2024/01/18 14:08:53;;;;;;;18.67;10.27;;;;;;;;;;10482155;28;20526;-89
2024/01/18 14:13:58;;;;;;;23.13;12.45;;;;;;;;;;10471966;28;20052;-89
2024/01/18 14:19:01;;;;;;;30.10;17.20;;;;;;;;;;10491562;28;20565;-88
2024/01/18 14:24:05;;;;;;;27.63;15.23;;;;;;;;;;10473683;28;20626;-89
2024/01/18 14:29:11;;;;;;;23.83;12.50;;;;;;;;;;10471871;28;20041;-89
2024/01/18 14:34:14;;;;;;;23.60;14.38;;;;;;;;;;10470502;28;20062;-89
2024/01/18 14:39:18;;;;;;;26.75;14.27;;;;;;;;;;10489082;28;20047;-89
2024/01/18 14:44:22;;;;;;;25.73;15.10;;;;;;;;;;10466277;28;20046;-89
2024/01/18 14:49:26;;;;;;;18.35;10.43;;;;;;;;;;10473258;28;20049;-89
2024/01/18 14:54:29;;;;;;;23.98;11.93;;;;;;;;;;10473012;28;20086;-91
2024/01/18 14:59:35;;;;;;;20.77;11.48;;;;;;;;;;10482942;28;20052;-89
2024/01/18 15:04:40;;;;;;;14.00;8.93;;;;;;;;;;10490972;28;20090;-89
2024/01/18 15:09:43;;;;;;;20.75;11.98;;;;;;;;;;10478639;28;20053;-90
2024/01/18 15:14:49;;;;;;;27.95;17.05;;;;;;;;;;10475376;28;20082;-89
2024/01/18 15:19:53;;;;;;;34.50;17.70;;;;;;;;;;10471744;28;20041;-89
2024/01/18 15:24:56;;;;;;;29.88;16.80;;;;;;;;;;10472539;28;20097;-90
2024/01/18 15:30:01;;;;;;;29.08;13.82;;;;;;;;;;10489194;28;20044;-90
2024/01/18 15:35:05;;;;;;;22.98;13.68;;;;;;;;;;10484264;28;20507;-90
2024/01/18 15:40:10;;;;;;;24.40;13.63;;;;;;;;;;10482572;28;20404;-89
2024/01/18 15:45:15;;;;;;;18.55;10.93;;;;;;;;;;10485343;28;20048;-89
2024/01/18 15:50:18;;;;;;;26.50;15.57;;;;;;;;;;10477280;28;20087;-89
2024/01/18 15:55:22;;;;;;;25.10;12.95;;;;;;;;;;10475579;28;20045;-90
2024/01/18 16:00:26;;;;;;;22.67;13.35;;;;;;;;;;10475679;28;20099;-91
2024/01/18 16:05:32;;;;;;;27.77;14.93;;;;;;;;;;10462999;28;20048;-90
2024/01/18 16:10:35;;;;;;;35.58;20.20;;;;;;;;;;10471113;28;20103;-89
2024/01/18 16:15:40;;;;;;;48.13;25.73;;;;;;;;;;10498891;28;20052;-90
2024/01/18 16:20:45;;;;;;;56.60;30.05;;;;;;;;;;10493029;28;20462;-90
2024/01/18 16:25:49;;;;;;;50.13;27.13;;;;;;;;;;10482371;28;20044;-89
2024/01/18 16:30:54;;;;;;;32.05;18.85;;;;;;;;;;10468974;28;20589;-90
2024/01/18 16:35:57;;;;;;;27.90;14.70;;;;;;;;;;10485329;28;20052;-90
2024/01/18 16:41:02;;;;;;;36.42;20.92;;;;;;;;;;10491170;28;20040;-90
2024/01/18 16:46:07;;;;;;;27.30;16.13;;;;;;;;;;10475537;28;20064;-90
2024/01/18 16:51:11;;;;;;;33.10;19.38;;;;;;;;;;10480418;28;20060;-90
2024/01/18 16:56:15;;;;;;;21.23;13.48;;;;;;;;;;10477066;28;20090;-86
2024/01/18 17:01:21;;;;;;;35.03;20.83;;;;;;;;;;10491772;28;20068;-89
2024/01/18 17:06:25;;;;;;;32.80;18.60;;;;;;;;;;10478144;28;20094;-86
2024/01/18 17:23:53;;;;;;;18.58;11.38;;;;;;;;;;10475055;28;20047;-77
2024/01/18 17:28:59;;;;;;;23.60;12.90;;;;;;;;;;10487978;28;20121;-78
2024/01/18 17:34:19;;;;;;;25.20;14.18;;;;;;;;;;10443689;28;20041;-78
2024/01/18 17:40:04;;;;;;;20.52;12.38;;;;;;;;;;10487560;28;20132;-78
2024/01/18 17:45:17;;;;;;;21.98;12.77;;;;;;;;;;10478552;28;20081;-78
2024/01/18 17:50:25;;;;;;;21.52;11.88;;;;;;;;;;10488545;28;21427;-78
2024/01/18 17:55:36;;;;;;;19.92;12.10;;;;;;;;;;10491867;28;20131;-78
2024/01/18 18:00:43;;;;;;;21.05;13.15;;;;;;;;;;10487059;28;20045;-78
2024/01/18 18:05:48;;;;;;;20.20;12.40;;;;;;;;;;10471004;28;20136;-78
2024/01/18 18:11:02;;;;;;;20.92;12.48;;;;;;;;;;10486154;28;20045;-78
2024/01/18 18:17:06;;;;;;;;;;;;;;;;;;;;;
2024/01/18 18:22:21;;;;;;;22.05;12.70;;;;;;;;;;10463026;28;20055;-78
2024/01/18 18:28:03;;;;;;;19.60;11.57;;;;;;;;;;10480375;28;20041;-77
2024/01/18 18:33:27;;;;;;;;;;;;;;;;;;;;;
2024/01/18 18:39:02;;;;;;;16.92;10.88;;;;;;;;;;10465132;28;20069;-78
2024/01/18 18:44:42;;;;;;;18.70;11.30;;;;;;;;;;10347182;28;20143;-77
2024/01/18 18:50:15;;;;;;;16.20;10.50;;;;;;;;;;10428774;28;20109;-77
2024/01/18 18:55:38;;;;;;;19.73;11.55;;;;;;;;;;10471731;28;20055;-77
2024/01/18 19:00:48;;;;;;;17.65;11.50;;;;;;;;;;10484414;28;20049;-78
2024/01/18 19:05:59;;;;;;;18.67;11.65;;;;;;;;;;10486113;28;20080;-78
2024/01/18 19:11:04;;;;;;;18.38;10.35;;;;;;;;;;10483810;28;20475;-79
2024/01/18 19:16:12;;;;;;;17.88;9.60;;;;;;;;;;10482768;28;20040;-77
2024/01/18 19:21:18;;;;;;;24.60;13.35;;;;;;;;;;10466829;28;20140;-77
2024/01/18 19:26:34;;;;;;;28.90;15.27;;;;;;;;;;10479037;28;20615;-77
2024/01/18 19:32:09;;;;;;;25.35;14.45;;;;;;;;;;10471554;28;20044;-77
2024/01/18 19:37:18;;;;;;;32.80;15.57;;;;;;;;;;10468190;28;20051;-77
2024/01/18 19:42:25;;;;;;;24.13;13.30;;;;;;;;;;10459504;28;20057;-77
2024/01/18 19:47:34;;;;;;;27.80;14.68;;;;;;;;;;10464692;28;20049;-77
2024/01/18 19:52:39;;;;;;;23.52;13.68;;;;;;;;;;10477030;28;20044;-77
2024/01/18 19:57:44;;;;;;;22.88;14.18;;;;;;;;;;10472985;28;20052;-77
2024/01/18 20:02:54;;;;;;;25.60;14.95;;;;;;;;;;10473186;28;21166;-77
2024/01/18 20:07:59;;;;;;;27.45;15.48;;;;;;;;;;10478219;28;20076;-78
2024/01/18 20:13:05;;;;;;;25.55;16.25;;;;;;;;;;10460882;28;20044;-77
2024/01/18 20:18:11;;;;;;;25.30;15.73;;;;;;;;;;10470730;28;20110;-77
2024/01/18 20:23:14;;;;;;;24.30;13.20;;;;;;;;;;10472823;28;20052;-77
2024/01/18 20:28:18;;;;;;;19.00;12.43;;;;;;;;;;10458257;28;20040;-77
2024/01/18 20:33:24;;;;;;;22.45;12.90;;;;;;;;;;10476433;28;20056;-77
2024/01/18 20:38:27;;;;;;;24.20;14.25;;;;;;;;;;10487713;28;20045;-77
2024/01/18 20:43:31;;;;;;;25.55;15.50;;;;;;;;;;10474850;28;20116;-78
2024/01/18 20:48:45;;;;;;;31.38;17.15;;;;;;;;;;10475692;28;20665;-77
2024/01/18 20:54:01;;;;;;;32.60;17.83;;;;;;;;;;10463775;28;20059;-77
2024/01/18 20:59:11;;;;;;;28.90;17.00;;;;;;;;;;10478665;28;20064;-77
2024/01/18 21:04:28;;;;;;;30.17;17.65;;;;;;;;;;10474765;28;20128;-77
2024/01/18 21:09:32;;;;;;;31.33;16.92;;;;;;;;;;10475808;28;20095;-77
2024/01/18 21:14:36;;;;;;;25.70;13.38;;;;;;;;;;10464862;28;20422;-77
2024/01/18 21:19:42;;;;;;;24.33;13.55;;;;;;;;;;10463499;28;20037;-77
2024/01/18 21:24:45;;;;;;;;;;;;;;;;;;10471494;28;20048;-77
2024/01/18 21:29:48;;;;;;;19.40;10.45;;;;;;;;;;10481851;28;20192;-77
2024/01/18 21:34:53;;;;;;;22.23;12.07;;;;;;;;;;10479093;28;20068;-77
2024/01/18 21:39:57;;;;;;;27.80;14.10;;;;;;;;;;10481844;28;20070;-77
2024/01/18 21:45:01;;;;;;;30.67;14.77;;;;;;;;;;10486030;28;20468;-77
2024/01/18 21:50:07;;;;;;;27.45;14.73;;;;;;;;;;10469362;28;20152;-77
2024/01/18 21:55:11;;;;;;;25.30;14.00;;;;;;;;;;10475280;28;20528;-77
2024/01/18 22:00:15;;;;;;;26.08;13.82;;;;;;;;;;10470189;28;20045;-77
2024/01/18 22:05:20;;;;;;;29.58;14.70;;;;;;;;;;10454597;28;20055;-77
2024/01/18 22:10:23;;;;;;;23.70;12.90;;;;;;;;;;10477092;28;20045;-77
2024/01/18 22:15:27;;;;;;;24.33;13.02;;;;;;;;;;10458477;28;20048;-78
2024/01/18 22:20:32;;;;;;;22.45;12.98;;;;;;;;;;10480656;28;20410;-77
2024/01/18 22:25:35;;;;;;;21.27;11.98;;;;;;;;;;10470551;28;20052;-77
2024/01/18 22:30:39;;;;;;;20.77;11.68;;;;;;;;;;10467805;28;20040;-77
2024/01/18 22:35:44;;;;;;;22.02;12.25;;;;;;;;;;10470100;28;20052;-77
2024/01/18 22:40:49;;;;;;;19.65;11.23;;;;;;;;;;10473128;28;20494;-77
2024/01/18 22:45:53;;;;;;;20.67;11.50;;;;;;;;;;10481991;28;20112;-78
2024/01/18 22:50:57;;;;;;;20.33;11.80;;;;;;;;;;10483904;28;20545;-77
2024/01/18 22:56:03;;;;;;;19.75;11.80;;;;;;;;;;10477411;28;20151;-77
2024/01/18 23:01:06;;;;;;;23.53;12.90;;;;;;;;;;10457898;28;20033;-77
2024/01/18 23:06:12;;;;;;;19.25;10.43;;;;;;;;;;10480954;28;20307;-77
2024/01/18 23:11:16;;;;;;;20.02;12.23;;;;;;;;;;10504797;22;20071;-79
2024/01/18 23:16:20;;;;;;;19.75;11.10;;;;;;;;;;10458467;28;20048;-79
2024/01/18 23:21:25;;;;;;;17.70;10.07;;;;;;;;;;10449891;28;20041;-79
2024/01/18 23:26:28;;;;;;;15.75;9.18;;;;;;;;;;10427925;28;20126;-79
2024/01/18 23:31:32;;;;;;;14.93;9.15;;;;;;;;;;10455094;28;20072;-79
2024/01/18 23:36:38;;;;;;;15.98;9.07;;;;;;;;;;10460467;28;20052;-79
2024/01/18 23:41:42;;;;;;;18.17;9.10;;;;;;;;;;10459731;28;20045;-79
2024/01/18 23:46:46;;;;;;;13.27;8.50;;;;;;;;;;10457535;28;20415;-79
2024/01/18 23:51:50;;;;;;;20.55;10.20;;;;;;;;;;10463689;28;20052;-79
2024/01/18 23:56:54;;;;;;;16.73;9.93;;;;;;;;;;10454877;28;20090;-78
